Time;durP1;ratioP1;P1;durP2;ratioP2;P2;SDS_P1;SDS_P2;PMS_P1;PMS_P2;Temp;Humidity;BMP_temperature;BMP_pressure;BME280_temperature;BME280_humidity;BME280_pressure;Samples;Min_cycle;Max_cycle;Signal;HPM_P1;HPM_P2
2022/11/11 00:01:58;;;;;;;;;;;;;;;18.79;44.62;102722.13;5006670;28;20383;-34
2022/11/11 00:04:23;;;;;;;;;;;;;;;18.75;44.61;102710.13;5005031;28;19925;-34
2022/11/11 00:06:48;;;;;;;;;;;;;;;18.72;44.90;102707.94;5004535;28;19949;-34
2022/11/11 00:09:14;;;;;;;;;;;;;;;18.74;44.76;102710.41;5006169;28;19917;-33
2022/11/11 00:11:39;;;;;;;;;;;;;;;18.69;44.77;102711.97;5006245;28;20421;-33
2022/11/11 00:14:04;;;;;;;;;;;;;;;18.70;44.83;102729.09;5003493;28;19925;-34
2022/11/11 00:25:04;;;;;;;;;;;;;;;18.70;44.63;102724.47;5003143;28;20436;-33
2022/11/11 00:27:27;;;;;;;;;;;;;;;18.70;44.76;102746.22;5001402;28;19983;-33
2022/11/11 00:29:52;;;;;;;;;;;;;;;18.71;44.68;102757.88;5004645;28;19960;-34
2022/11/11 00:32:29;;;;;;;;;;;;;;;18.75;44.77;102769.88;5005081;28;19963;-33
2022/11/11 00:37:40;;;;;;;;;;;;;;;18.78;44.79;102765.81;5001035;28;19931;-33
2022/11/11 00:40:06;;;;;;;;;;;;;;;18.78;44.79;102763.09;5007091;28;20405;-33
2022/11/11 00:42:31;;;;;;;;;;;;;;;18.78;44.84;102774.78;5006000;28;19917;-33
2022/11/11 00:44:57;;;;;;;;;;;;;;;18.79;44.77;102765.56;5005909;28;20278;-33
2022/11/11 00:52:53;;;;;;;;;;;;;;;18.81;44.68;102740.88;5006377;28;20507;-33
2022/11/11 00:55:18;;;;;;;;;;;;;;;18.76;44.54;102738.13;5004879;28;19926;-33
2022/11/11 00:57:43;;;;;;;;;;;;;;;18.76;44.60;102733.50;5005999;28;19917;-33
2022/11/11 01:00:09;;;;;;;;;;;;;;;18.68;44.63;102726.63;5002172;28;20052;-33
2022/11/11 01:02:34;;;;;;;;;;;;;;;18.64;44.66;102739.06;5004669;28;19963;-33
2022/11/11 01:04:59;;;;;;;;;;;;;;;18.62;44.95;102734.94;5004741;28;19932;-33
2022/11/11 01:07:25;;;;;;;;;;;;;;;18.58;44.79;102728.38;5005115;28;20000;-33
2022/11/11 01:09:50;;;;;;;;;;;;;;;18.53;44.78;102729.13;5004725;28;21603;-33
2022/11/11 01:12:16;;;;;;;;;;;;;;;18.46;44.89;102733.09;5003131;28;19918;-33
2022/11/11 01:14:41;;;;;;;;;;;;;;;18.44;45.01;102730.63;5005536;28;19922;-33
2022/11/11 01:17:08;;;;;;;;;;;;;;;18.41;44.88;102721.13;5004689;28;19957;-33
2022/11/11 01:19:33;;;;;;;;;;;;;;;18.35;44.91;102721.31;5003676;28;19929;-33
2022/11/11 01:21:59;;;;;;;;;;;;;;;18.30;45.06;102718.50;5003228;28;20161;-33
2022/11/11 01:24:24;;;;;;;;;;;;;;;18.27;45.01;102721.75;5001312;28;20008;-33
2022/11/11 01:26:49;;;;;;;;;;;;;;;18.22;45.10;102725.22;5006875;28;19932;-33
2022/11/11 01:29:15;;;;;;;;;;;;;;;18.14;45.08;102725.66;5003800;28;19925;-33
2022/11/11 01:31:40;;;;;;;;;;;;;;;18.12;45.06;102733.19;5004390;28;20020;-33
2022/11/11 01:34:05;;;;;;;;;;;;;;;18.09;45.28;102728.28;5001853;28;19923;-33
2022/11/11 01:36:31;;;;;;;;;;;;;;;18.04;45.33;102730.94;5005543;28;19924;-33
2022/11/11 01:38:58;;;;;;;;;;;;;;;18.01;45.38;102731.44;5005902;28;20379;-33
2022/11/11 01:41:34;;;;;;;;;;;;;;;17.95;45.47;102727.81;5003775;28;19921;-33
2022/11/11 01:44:02;;;;;;;;;;;;;;;17.92;45.50;102733.75;5003903;28;19921;-33
2022/11/11 01:46:27;;;;;;;;;;;;;;;17.88;45.37;102738.03;5000212;28;20143;-33
2022/11/11 01:51:52;;;;;;;;;;;;;;;17.88;45.37;102762.44;5003065;28;19932;-33
2022/11/11 01:54:31;;;;;;;;;;;;;;;17.87;45.60;102758.06;5004317;28;19925;-33
2022/11/11 01:57:00;;;;;;;;;;;;;;;17.88;45.57;102756.19;5003077;28;20373;-33
2022/11/11 01:59:25;;;;;;;;;;;;;;;17.84;45.55;102752.34;5004103;28;19959;-33
2022/11/11 02:01:50;;;;;;;;;;;;;;;17.81;45.53;102750.94;5002699;28;20375;-33
2022/11/11 02:07:22;;;;;;;;;;;;;;;17.65;45.25;102749.84;4975525;28;20001;-33
2022/11/11 02:09:49;;;;;;;;;;;;;;;17.60;45.64;102765.22;4976701;28;20393;-33
2022/11/11 02:14:59;;;;;;;;;;;;;;;17.57;45.67;102762.97;5005049;28;20415;-33
2022/11/11 02:17:26;;;;;;;;;;;;;;;17.56;45.51;102762.16;5001937;28;20147;-33
2022/11/11 02:19:56;;;;;;;;;;;;;;;17.53;45.77;102762.66;4999341;28;19925;-33
2022/11/11 02:22:25;;;;;;;;;;;;;;;17.53;45.64;102765.38;5003504;28;19918;-33
2022/11/11 02:24:51;;;;;;;;;;;;;;;17.56;45.74;102766.75;5003935;28;19925;-33
2022/11/11 02:27:17;;;;;;;;;;;;;;;17.57;45.79;102765.69;5003417;28;19960;-33
2022/11/11 02:29:45;;;;;;;;;;;;;;;17.53;45.65;102757.22;5000367;28;20287;-33
2022/11/11 02:32:10;;;;;;;;;;;;;;;17.51;45.57;102762.06;5003117;28;20012;-33
2022/11/11 02:34:35;;;;;;;;;;;;;;;17.45;45.78;102774.72;5004077;28;20450;-33
2022/11/11 02:37:02;;;;;;;;;;;;;;;17.41;45.86;102783.56;5003735;28;20145;-33
2022/11/11 02:39:27;;;;;;;;;;;;;;;17.37;45.93;102785.13;5002732;28;19926;-33
2022/11/11 02:41:55;;;;;;;;;;;;;;;17.34;45.74;102785.63;4998279;28;19917;-33
2022/11/11 02:44:21;;;;;;;;;;;;;;;17.31;45.84;102775.28;5003263;28;19917;-33
2022/11/11 02:46:46;;;;;;;;;;;;;;;17.28;45.88;102775.78;5004347;28;19925;-33
2022/11/11 02:49:11;;;;;;;;;;;;;;;17.25;45.93;102777.09;5004525;28;20386;-33
2022/11/11 02:51:37;;;;;;;;;;;;;;;17.25;46.22;102776.25;5002912;28;19929;-33
2022/11/11 02:54:02;;;;;;;;;;;;;;;17.22;45.79;102775.66;5004325;28;21421;-33
2022/11/11 02:59:12;;;;;;;;;;;;;;;17.21;45.85;102767.78;5006026;28;20425;-33
2022/11/11 03:01:37;;;;;;;;;;;;;;;17.19;46.02;102764.50;5008330;28;19918;-33
2022/11/11 03:04:02;;;;;;;;;;;;;;;17.13;45.88;102760.06;5007915;28;19930;-33
2022/11/11 03:06:28;;;;;;;;;;;;;;;17.03;46.03;102757.16;5007081;28;19925;-33
2022/11/11 03:08:53;;;;;;;;;;;;;;;16.95;46.01;102750.25;5018696;28;19921;-33
2022/11/11 03:11:26;;;;;;;;;;;;;;;16.92;46.28;102750.75;5005499;28;19957;-33
2022/11/11 03:13:52;;;;;;;;;;;;;;;16.89;46.21;102740.41;5007702;28;20016;-33
2022/11/11 03:19:02;;;;;;;;;;;;;;;16.81;46.38;102729.94;5003307;28;20382;-33
2022/11/11 03:21:27;;;;;;;;;;;;;;;16.78;46.46;102730.44;5003551;28;19925;-33
2022/11/11 03:23:52;;;;;;;;;;;;;;;16.77;46.34;102739.63;5002474;28;19952;-33
2022/11/11 03:26:18;;;;;;;;;;;;;;;16.82;46.35;102739.69;5005869;28;19945;-33
2022/11/11 03:28:43;;;;;;;;;;;;;;;16.83;46.41;102725.09;5007664;28;20358;-33
2022/11/11 03:31:09;;;;;;;;;;;;;;;16.82;46.28;102723.47;4997996;28;19953;-33
2022/11/11 03:33:34;;;;;;;;;;;;;;;16.80;46.24;102718.28;5003074;28;20279;-33
2022/11/11 03:35:59;;;;;;;;;;;;;;;16.78;46.41;102716.88;5001596;28;19928;-33
2022/11/11 03:38:25;;;;;;;;;;;;;;;16.79;46.60;102723.94;5005558;28;19925;-33
2022/11/11 03:40:52;;;;;;;;;;;;;;;16.79;46.36;102719.34;5000003;28;20386;-33
2022/11/11 03:43:18;;;;;;;;;;;;;;;16.77;46.24;102721.47;5002693;28;19972;-33
2022/11/11 03:45:44;;;;;;;;;;;;;;;16.74;46.33;102734.69;5003526;28;19925;-33
2022/11/11 03:48:09;;;;;;;;;;;;;;;16.72;46.36;102737.63;5003711;28;20021;-33
2022/11/11 03:50:35;;;;;;;;;;;;;;;16.69;46.59;102753.50;5002881;28;19924;-33
2022/11/11 03:53:00;;;;;;;;;;;;;;;16.68;46.28;102749.16;5005518;28;20260;-33
2022/11/11 03:55:26;;;;;;;;;;;;;;;16.67;46.40;102752.94;5003495;28;19948;-33
2022/11/11 03:57:51;;;;;;;;;;;;;;;16.66;46.49;102751.25;5005915;28;19933;-33
2022/11/11 04:00:19;;;;;;;;;;;;;;;16.67;46.43;102753.75;5000683;28;20299;-33
2022/11/11 04:10:59;;;;;;;;;;;;;;;16.71;46.73;102737.88;5005278;28;20394;-33
2022/11/11 04:16:09;;;;;;;;;;;;;;;16.79;46.93;102738.31;5006576;28;19928;-33
2022/11/11 04:25:47;;;;;;;;;;;;;;;16.77;46.82;102769.38;5007511;28;20333;-33
2022/11/11 04:26:49;;;;;;;;;;;;;;;16.80;46.82;102768.91;5006386;28;20026;-33
2022/11/11 04:29:29;;;;;;;;;;;;;;;16.80;46.94;102768.91;5001808;28;19989;-33
2022/11/11 04:34:47;;;;;;;;;;;;;;;16.79;46.84;102761.84;5006579;28;20413;-33
2022/11/11 04:37:13;;;;;;;;;;;;;;;16.76;46.80;102773.16;4999867;28;19921;-33
2022/11/11 04:42:22;;;;;;;;;;;;;;;16.75;46.82;102764.22;5007085;28;19928;-33
2022/11/11 04:47:31;;;;;;;;;;;;;;;16.74;46.78;102776.09;5004990;28;19924;-33
2022/11/11 04:49:56;;;;;;;;;;;;;;;16.73;46.81;102773.66;5003354;28;20151;-33
2022/11/11 04:52:25;;;;;;;;;;;;;;;16.75;46.74;102777.75;5002624;28;20004;-34
2022/11/11 04:57:37;;;;;;;;;;;;;;;16.72;46.82;102780.13;5004871;28;20303;-33
2022/11/11 05:00:03;;;;;;;;;;;;;;;16.77;46.99;102785.63;5007272;28;19925;-33
2022/11/11 05:05:12;;;;;;;;;;;;;;;16.74;46.70;102778.00;5005793;28;20292;-34
2022/11/11 05:10:21;;;;;;;;;;;;;;;16.61;47.06;102765.50;5006068;28;19968;-33
2022/11/11 05:12:47;;;;;;;;;;;;;;;16.59;47.12;102754.94;5003634;28;19925;-34
2022/11/11 05:25:24;;;;;;;;;;;;;;;16.49;47.14;102767.41;5004011;28;19929;-33
2022/11/11 05:26:09;;;;;;;;;;;;;;;16.49;47.10;102768.25;5002623;28;19983;-33
2022/11/11 05:28:34;;;;;;;;;;;;;;;16.48;47.38;102777.41;5005914;28;19918;-33
2022/11/11 05:31:00;;;;;;;;;;;;;;;16.49;47.19;102764.72;5005235;28;20401;-33
2022/11/11 05:33:25;;;;;;;;;;;;;;;16.51;47.10;102776.13;5006741;28;20272;-33
2022/11/11 05:35:50;;;;;;;;;;;;;;;16.51;47.17;102770.69;5001645;28;19925;-33
2022/11/11 05:38:21;;;;;;;;;;;;;;;16.56;47.27;102757.31;5005002;28;19917;-33
2022/11/11 05:40:47;;;;;;;;;;;;;;;16.57;47.17;102764.34;5004131;28;20020;-33
2022/11/11 05:43:12;;;;;;;;;;;;;;;16.58;47.08;102766.00;5006242;28;20008;-34
2022/11/11 05:45:39;;;;;;;;;;;;;;;16.58;47.26;102763.28;5005763;28;19921;-33
2022/11/11 05:48:04;;;;;;;;;;;;;;;16.58;47.29;102766.00;4996110;28;19921;-33
2022/11/11 05:50:30;;;;;;;;;;;;;;;16.64;47.28;102765.03;5000474;28;19961;-33
2022/11/11 05:52:55;;;;;;;;;;;;;;;16.71;47.17;102775.78;5005022;28;19917;-33
2022/11/11 05:55:21;;;;;;;;;;;;;;;16.71;47.17;102781.19;5004972;28;20010;-33
2022/11/11 05:57:46;;;;;;;;;;;;;;;16.74;46.98;102783.41;5002732;28;19918;-33
2022/11/11 06:00:12;;;;;;;;;;;;;;;16.76;47.02;102787.50;5003042;28;19932;-33
2022/11/11 06:02:38;;;;;;;;;;;;;;;16.76;46.93;102794.81;5006035;28;19918;-33
2022/11/11 06:05:03;;;;;;;;;;;;;;;16.80;46.81;102798.69;5002587;28;19937;-33
2022/11/11 06:07:28;;;;;;;;;;;;;;;16.77;46.87;102796.47;5005430;28;19925;-33
2022/11/11 06:10:29;;;;;;;;;;;;;;;16.78;47.15;102800.81;5002280;28;20495;-33
2022/11/11 06:15:26;;;;;;;;;;;;;;;16.87;46.92;102804.78;5004349;28;20036;-33
2022/11/11 06:17:52;;;;;;;;;;;;;;;16.91;47.00;102798.66;5004288;28;19917;-33
2022/11/11 06:20:17;;;;;;;;;;;;;;;16.98;46.70;102803.91;5002319;28;20298;-33
2022/11/11 06:22:58;;;;;;;;;;;;;;;17.01;46.59;102808.03;5001399;28;20369;-34
2022/11/11 06:28:17;;;;;;;;;;;;;;;17.10;46.46;102807.41;5003895;28;20393;-33
2022/11/11 06:30:42;;;;;;;;;;;;;;;17.14;46.52;102805.84;5002670;28;19917;-34
2022/11/11 06:33:08;;;;;;;;;;;;;;;17.20;46.26;102806.78;5003042;28;19932;-34
2022/11/11 06:35:34;;;;;;;;;;;;;;;17.23;46.35;102792.72;5005059;28;19991;-33
2022/11/11 06:38:00;;;;;;;;;;;;;;;17.21;46.28;102792.97;5002802;28;20089;-33
2022/11/11 06:40:25;;;;;;;;;;;;;;;17.15;46.05;102788.53;5005236;28;19928;-33
2022/11/11 06:42:51;;;;;;;;;;;;;;;17.05;46.19;102777.50;5002010;28;19917;-34
2022/11/11 06:45:16;;;;;;;;;;;;;;;16.97;46.48;102788.75;5004198;28;19921;-33
2022/11/11 06:47:42;;;;;;;;;;;;;;;16.93;46.33;102795.72;5003278;28;19928;-34
2022/11/11 06:50:07;;;;;;;;;;;;;;;16.91;46.57;102797.84;5004270;28;19917;-34
2022/11/11 06:52:33;;;;;;;;;;;;;;;16.92;46.51;102813.00;5005339;28;19923;-33
2022/11/11 06:54:58;;;;;;;;;;;;;;;16.90;46.52;102802.44;4999927;28;20350;-34
2022/11/11 06:57:23;;;;;;;;;;;;;;;16.86;46.43;102808.53;5002925;28;19979;-34
2022/11/11 06:59:48;;;;;;;;;;;;;;;16.88;46.62;102804.56;5003248;28;19975;-34
2022/11/11 07:02:14;;;;;;;;;;;;;;;16.90;46.44;102807.84;5006004;28;19964;-34
2022/11/11 07:04:39;;;;;;;;;;;;;;;16.87;46.49;102796.66;5001405;28;19925;-33
2022/11/11 07:07:04;;;;;;;;;;;;;;;16.82;46.38;102801.97;4999286;28;20011;-34
2022/11/11 07:09:30;;;;;;;;;;;;;;;16.78;46.50;102795.41;5004452;28;19923;-34
2022/11/11 07:11:55;;;;;;;;;;;;;;;16.67;46.62;102798.94;5001994;28;20387;-33
2022/11/11 07:14:21;;;;;;;;;;;;;;;16.67;46.76;102793.53;5005619;28;19918;-33
2022/11/11 07:16:46;;;;;;;;;;;;;;;16.66;46.64;102797.25;5003750;28;19925;-33
2022/11/11 07:19:11;;;;;;;;;;;;;;;16.65;46.69;102801.03;5003772;28;20164;-33
2022/11/11 07:21:36;;;;;;;;;;;;;;;16.67;46.75;102796.25;5004992;28;19921;-34
2022/11/11 07:24:02;;;;;;;;;;;;;;;16.66;46.72;102798.09;5002306;28;19933;-34
2022/11/11 07:26:27;;;;;;;;;;;;;;;16.63;46.87;102801.28;5004641;28;20498;-33
2022/11/11 07:28:53;;;;;;;;;;;;;;;16.63;46.82;102802.09;4997774;28;19924;-34
2022/11/11 07:31:18;;;;;;;;;;;;;;;16.63;46.83;102807.50;5002311;28;20330;-33
2022/11/11 07:33:44;;;;;;;;;;;;;;;16.65;47.04;102812.69;5003292;28;19959;-34
2022/11/11 07:36:09;;;;;;;;;;;;;;;16.73;46.95;102816.97;5003695;28;19945;-33
2022/11/11 07:38:34;;;;;;;;;;;;;;;16.75;46.74;102820.25;5000779;28;19941;-33
2022/11/11 07:40:59;;;;;;;;;;;;;;;16.79;46.76;102830.34;5000738;28;19925;-33
2022/11/11 07:43:25;;;;;;;;;;;;;;;16.85;46.58;102833.97;5005876;28;19921;-33
2022/11/11 07:45:50;;;;;;;;;;;;;;;16.87;46.72;102838.09;5007677;28;19972;-33
2022/11/11 07:48:16;;;;;;;;;;;;;;;16.89;46.68;102846.81;5007662;28;19972;-33
2022/11/11 07:50:41;;;;;;;;;;;;;;;16.95;46.85;102842.31;5003855;28;19929;-34
2022/11/11 07:53:06;;;;;;;;;;;;;;;17.01;46.98;102849.47;5004380;28;20342;-34
2022/11/11 07:55:32;;;;;;;;;;;;;;;17.09;46.72;102846.41;4999658;28;20437;-33
2022/11/11 07:57:57;;;;;;;;;;;;;;;17.14;46.56;102848.38;5001441;28;19914;-33
2022/11/11 08:00:23;;;;;;;;;;;;;;;17.22;46.43;102862.34;5003235;28;20390;-33
2022/11/11 08:02:48;;;;;;;;;;;;;;;17.21;46.44;102868.84;5002904;28;19993;-33
2022/11/11 08:05:13;;;;;;;;;;;;;;;17.33;46.19;102878.81;4999961;28;20422;-34
2022/11/11 08:07:41;;;;;;;;;;;;;;;17.30;46.43;102877.41;5003796;28;19981;-34
2022/11/11 08:10:06;;;;;;;;;;;;;;;17.33;46.14;102876.09;5001623;28;19921;-34
2022/11/11 08:15:15;;;;;;;;;;;;;;;17.22;46.30;102869.66;5005438;28;19929;-32
2022/11/11 08:17:41;;;;;;;;;;;;;;;17.20;46.30;102877.19;5003855;28;19941;-33
2022/11/11 08:20:07;;;;;;;;;;;;;;;17.23;46.47;102882.13;5001772;28;19929;-33
2022/11/11 08:22:37;;;;;;;;;;;;;;;17.28;46.52;102889.56;5004615;28;20426;-33
2022/11/11 08:25:03;;;;;;;;;;;;;;;17.38;46.40;102895.16;5000137;28;19928;-34
2022/11/11 08:27:28;;;;;;;;;;;;;;;17.44;46.33;102907.75;5000316;28;19921;-33
2022/11/11 08:29:53;;;;;;;;;;;;;;;17.52;46.08;102907.38;5001999;28;20315;-33
2022/11/11 08:32:18;;;;;;;;;;;;;;;17.50;45.97;102914.91;4998683;28;20383;-32
2022/11/11 08:34:44;;;;;;;;;;;;;;;17.49;45.84;102924.13;5004669;28;19921;-32
2022/11/11 08:37:09;;;;;;;;;;;;;;;17.50;46.06;102920.34;4999376;28;19964;-33
2022/11/11 08:39:35;;;;;;;;;;;;;;;17.47;46.05;102912.69;5001505;28;19921;-33
2022/11/11 08:42:00;;;;;;;;;;;;;;;17.48;46.06;102917.06;4997840;28;19921;-33
2022/11/11 08:44:25;;;;;;;;;;;;;;;17.51;46.01;102917.38;4999401;28;19925;-33
2022/11/11 08:46:51;;;;;;;;;;;;;;;17.51;45.89;102919.28;5003572;28;19937;-33
2022/11/11 08:49:16;;;;;;;;;;;;;;;17.51;45.98;102921.97;4999016;28;19917;-33
2022/11/11 08:51:41;;;;;;;;;;;;;;;17.59;45.97;102927.00;5002911;28;19964;-32
2022/11/11 08:54:07;;;;;;;;;;;;;;;17.61;45.96;102924.06;5000467;28;19922;-33
2022/11/11 08:56:32;;;;;;;;;;;;;;;17.65;45.78;102928.75;4997341;28;20264;-33
2022/11/11 08:58:57;;;;;;;;;;;;;;;17.62;45.78;102933.84;5000571;28;20415;-33
2022/11/11 09:01:23;;;;;;;;;;;;;;;17.61;45.94;102932.22;4997649;28;19952;-33
2022/11/11 09:03:48;;;;;;;;;;;;;;;17.64;45.81;102932.53;4996489;28;20296;-33
2022/11/11 09:06:13;;;;;;;;;;;;;;;17.63;46.02;102939.03;5001197;28;20023;-33
2022/11/11 09:08:42;;;;;;;;;;;;;;;17.69;45.99;102939.97;5002719;28;19921;-33
2022/11/11 09:11:08;;;;;;;;;;;;;;;17.71;46.12;102929.69;4993108;28;20008;-33
2022/11/11 09:13:33;;;;;;;;;;;;;;;17.76;45.86;102916.22;5002405;28;19992;-33
2022/11/11 09:15:58;;;;;;;;;;;;;;;17.76;45.96;102911.63;5003113;28;19929;-33
2022/11/11 09:18:24;;;;;;;;;;;;;;;17.84;45.80;102910.44;5003149;28;19925;-33
2022/11/11 09:20:49;;;;;;;;;;;;;;;17.82;45.76;102923.41;4999957;28;20303;-32
2022/11/11 09:23:15;;;;;;;;;;;;;;;17.85;45.82;102922.91;5002378;28;19928;-33
2022/11/11 09:25:40;;;;;;;;;;;;;;;17.90;45.85;102927.59;5001340;28;20318;-33
2022/11/11 09:28:06;;;;;;;;;;;;;;;17.91;45.62;102932.78;5000133;28;19949;-33
2022/11/11 09:30:32;;;;;;;;;;;;;;;17.94;45.75;102934.19;5003225;28;20019;-33
2022/11/11 09:33:01;;;;;;;;;;;;;;;17.96;45.81;102929.34;5003525;28;20020;-33
2022/11/11 09:35:26;;;;;;;;;;;;;;;17.97;45.67;102934.53;5001959;28;20004;-33
2022/11/11 09:37:52;;;;;;;;;;;;;;;17.98;45.43;102936.19;5001361;28;19956;-32
2022/11/11 09:40:20;;;;;;;;;;;;;;;17.95;45.70;102943.97;5001693;28;19928;-35
2022/11/11 09:42:55;;;;;;;;;;;;;;;18.03;45.56;102947.09;5000794;28;19983;-38
2022/11/11 09:45:29;;;;;;;;;;;;;;;18.09;45.47;102950.72;4998918;28;19953;-41
2022/11/11 09:48:11;;;;;;;;;;;;;;;18.15;45.37;102948.94;5001099;28;20048;-37
2022/11/11 09:50:38;;;;;;;;;;;;;;;18.18;45.47;102949.28;5000293;28;19921;-40
2022/11/11 09:53:12;;;;;;;;;;;;;;;18.20;45.13;102951.72;5000609;28;19930;-39
2022/11/11 09:55:40;;;;;;;;;;;;;;;18.25;45.07;102951.81;4998488;28;19921;-39
2022/11/11 09:58:12;;;;;;;;;;;;;;;18.32;45.10;102955.19;5002970;28;20346;-38
2022/11/11 10:00:40;;;;;;;;;;;;;;;18.34;45.01;102953.06;5001531;28;19933;-38
2022/11/11 10:03:09;;;;;;;;;;;;;;;18.38;45.03;102944.16;5002404;28;20282;-40
2022/11/11 10:05:40;;;;;;;;;;;;;;;18.40;44.75;102950.16;5001028;28;19932;-40
2022/11/11 10:08:12;;;;;;;;;;;;;;;18.42;44.94;102944.50;5001453;28;19928;-40
2022/11/11 10:10:47;;;;;;;;;;;;;;;18.48;44.58;102935.34;4999068;28;19932;-40
2022/11/11 10:13:18;;;;;;;;;;;;;;;18.39;44.54;102940.38;5001358;28;20362;-37
2022/11/11 10:15:50;;;;;;;;;;;;;;;18.36;44.33;102940.06;5000461;28;20024;-40
2022/11/11 10:18:28;;;;;;;;;;;;;;;18.37;44.64;102941.72;5004124;28;19928;-39
2022/11/11 10:20:54;;;;;;;;;;;;;;;18.40;44.67;102938.50;5002110;28;20367;-40
2022/11/11 10:23:23;;;;;;;;;;;;;;;18.46;44.56;102923.09;5002054;28;19922;-39
2022/11/11 10:25:53;;;;;;;;;;;;;;;18.56;44.47;102923.25;4999299;28;20531;-41
2022/11/11 10:28:23;;;;;;;;;;;;;;;18.71;44.29;102926.25;5001794;28;20323;-41
2022/11/11 10:30:50;;;;;;;;;;;;;;;18.69;43.72;102914.81;4997216;28;20008;-38
2022/11/11 10:33:31;;;;;;;;;;;;;;;18.64;43.99;102912.00;5001965;28;19925;-40
2022/11/11 10:35:59;;;;;;;;;;;;;;;18.61;43.99;102916.00;4997351;28;19921;-39
2022/11/11 10:38:24;;;;;;;;;;;;;;;18.62;44.08;102917.66;4996908;28;19918;-38
2022/11/11 10:40:53;;;;;;;;;;;;;;;18.68;44.04;102910.44;5002448;28;20283;-40
2022/11/11 10:43:19;;;;;;;;;;;;;;;18.72;43.97;102917.03;5004283;28;19925;-40
2022/11/11 10:45:54;;;;;;;;;;;;;;;18.78;43.74;102915.19;5001390;28;19921;-38
2022/11/11 10:48:24;;;;;;;;;;;;;;;18.76;43.55;102917.34;5000814;28;19925;-40
2022/11/11 10:50:52;;;;;;;;;;;;;;;18.70;43.64;102919.16;5002428;28;20227;-41
2022/11/11 10:53:24;;;;;;;;;;;;;;;18.74;43.63;102928.44;5000707;28;19917;-42
2022/11/11 10:55:55;;;;;;;;;;;;;;;18.80;43.66;102929.34;5001737;28;20141;-39
2022/11/11 10:58:24;;;;;;;;;;;;;;;18.90;43.73;102934.91;5000915;28;20020;-42
2022/11/11 11:00:52;;;;;;;;;;;;;;;18.96;43.64;102926.56;4994980;28;19921;-39
2022/11/11 11:03:44;;;;;;;;;;;;;;;19.04;43.31;102940.81;4998737;28;19921;-40
2022/11/11 11:06:19;;;;;;;;;;;;;;;19.06;43.42;102925.09;4996056;28;19925;-41
2022/11/11 11:08:52;;;;;;;;;;;;;;;19.11;43.32;102917.00;5000355;28;20443;-42
2022/11/11 11:11:25;;;;;;;;;;;;;;;19.09;43.31;102930.00;5002281;28;19929;-42
2022/11/11 11:13:52;;;;;;;;;;;;;;;19.16;43.45;102923.28;4998895;28;19925;-41
2022/11/11 11:16:21;;;;;;;;;;;;;;;19.22;43.43;102926.91;4998661;28;19939;-42
2022/11/11 11:19:06;;;;;;;;;;;;;;;19.30;43.35;102923.75;4998295;28;19988;-41
2022/11/11 11:21:50;;;;;;;;;;;;;;;19.44;43.46;102933.16;4993248;28;19921;-40
2022/11/11 11:24:20;;;;;;;;;;;;;;;19.51;43.36;102930.22;4999109;28;19921;-42
2022/11/11 11:26:47;;;;;;;;;;;;;;;19.55;43.40;102932.19;5004188;28;20298;-42
2022/11/11 11:29:22;;;;;;;;;;;;;;;19.52;42.91;102929.97;5003661;28;19921;-41
2022/11/11 11:31:47;;;;;;;;;;;;;;;19.43;42.98;102925.25;4999332;28;20324;-39
2022/11/11 11:34:13;;;;;;;;;;;;;;;19.31;42.89;102933.53;5002015;28;19917;-41
2022/11/11 11:36:38;;;;;;;;;;;;;;;19.24;43.19;102935.63;5000787;28;19917;-40
2022/11/11 11:39:03;;;;;;;;;;;;;;;19.28;43.30;102937.59;5003008;28;19932;-43
2022/11/11 11:41:38;;;;;;;;;;;;;;;19.32;43.11;102943.34;5002961;28;19980;-44
2022/11/11 11:44:23;;;;;;;;;;;;;;;19.29;43.37;102939.22;5006572;28;19921;-42
2022/11/11 11:46:48;;;;;;;;;;;;;;;19.31;43.12;102938.97;5005459;28;19983;-42
2022/11/11 11:49:23;;;;;;;;;;;;;;;19.34;43.13;102935.75;5001989;28;20015;-43
2022/11/11 11:52:00;;;;;;;;;;;;;;;19.35;43.25;102931.94;5005874;28;19925;-40
2022/11/11 11:54:50;;;;;;;;;;;;;;;19.38;43.25;102925.19;5001710;28;19976;-41
2022/11/11 11:57:23;;;;;;;;;;;;;;;19.44;43.14;102927.72;5005732;28;19921;-43
2022/11/11 12:00:01;;;;;;;;;;;;;;;19.41;43.14;102928.22;5004053;28;19925;-42
2022/11/11 12:02:29;;;;;;;;;;;;;;;19.41;42.96;102935.56;4999057;28;19921;-42
2022/11/11 12:04:58;;;;;;;;;;;;;;;19.51;43.08;102928.31;5004999;28;19925;-40
2022/11/11 12:07:35;;;;;;;;;;;;;;;19.58;42.93;102926.28;5003703;28;19918;-38
2022/11/11 12:10:07;;;;;;;;;;;;;;;19.74;43.06;102934.56;5003337;28;19921;-42
2022/11/11 12:12:32;;;;;;;;;;;;;;;19.91;43.09;102938.81;5002431;28;19928;-40
2022/11/11 12:15:01;;;;;;;;;;;;;;;20.04;42.89;102929.44;5003271;28;19921;-41
2022/11/11 12:17:35;;;;;;;;;;;;;;;20.14;42.81;102929.53;4999262;28;20509;-43
2022/11/11 12:20:03;;;;;;;;;;;;;;;20.22;42.50;102934.47;5001980;28;20325;-43
2022/11/11 12:22:35;;;;;;;;;;;;;;;20.15;42.21;102925.72;4999107;28;19922;-41
2022/11/11 12:25:02;;;;;;;;;;;;;;;20.16;41.89;102923.81;5004187;28;19937;-41
2022/11/11 12:27:30;;;;;;;;;;;;;;;20.21;42.22;102934.75;5004130;28;19947;-42
2022/11/11 12:30:00;;;;;;;;;;;;;;;20.34;41.70;102936.22;5002904;28;19922;-42
2022/11/11 12:32:33;;;;;;;;;;;;;;;20.40;41.61;102935.16;5000710;28;19921;-43
2022/11/11 12:35:12;;;;;;;;;;;;;;;20.37;41.20;102935.69;4996008;28;19921;-43
2022/11/11 12:37:40;;;;;;;;;;;;;;;20.33;41.62;102940.00;4995597;28;20303;-41
2022/11/11 12:40:15;;;;;;;;;;;;;;;20.32;41.62;102941.91;5003121;28;20497;-43
2022/11/11 12:42:40;;;;;;;;;;;;;;;20.29;41.22;102936.16;5000331;28;19929;-42
2022/11/11 12:45:12;;;;;;;;;;;;;;;20.22;41.70;102933.66;5001919;28;19921;-41
2022/11/11 12:48:03;;;;;;;;;;;;;;;20.10;41.46;102922.94;5000011;28;20383;-41
2022/11/11 12:50:29;;;;;;;;;;;;;;;20.16;41.87;102926.53;4988360;28;19917;-42
2022/11/11 12:53:04;;;;;;;;;;;;;;;20.21;41.67;102927.41;4999867;28;19921;-42
2022/11/11 12:55:36;;;;;;;;;;;;;;;20.21;41.63;102932.03;4997779;28;19932;-41
2022/11/11 12:58:08;;;;;;;;;;;;;;;20.33;41.54;102929.94;5004768;28;19936;-41
2022/11/11 13:00:37;;;;;;;;;;;;;;;20.46;41.51;102926.78;4998238;28;20144;-42
2022/11/11 13:03:17;;;;;;;;;;;;;;;20.70;41.01;102937.31;5004055;28;20354;-42
2022/11/11 13:06:04;;;;;;;;;;;;;;;20.94;40.82;102933.06;5003092;28;20019;-42
2022/11/11 13:08:29;;;;;;;;;;;;;;;21.17;40.33;102926.34;5002344;28;20032;-42
2022/11/11 13:11:13;;;;;;;;;;;;;;;21.18;39.88;102925.25;5002825;28;20168;-42
2022/11/11 13:14:01;;;;;;;;;;;;;;;21.14;40.36;102926.88;5003136;28;19918;-41
2022/11/11 13:16:26;;;;;;;;;;;;;;;21.09;40.04;102930.41;4998481;28;19928;-40
2022/11/11 13:19:10;;;;;;;;;;;;;;;20.99;40.31;102921.38;4995793;28;20021;-38
2022/11/11 13:21:54;;;;;;;;;;;;;;;20.85;40.59;102920.22;5002928;28;19928;-40
2022/11/11 13:24:21;;;;;;;;;;;;;;;20.75;40.88;102921.81;5001734;28;19925;-41
2022/11/11 13:26:49;;;;;;;;;;;;;;;20.66;40.47;102915.22;5004867;28;19925;-43
2022/11/11 13:29:32;;;;;;;;;;;;;;;20.62;41.01;102916.00;5005214;28;19987;-38
2022/11/11 13:31:58;;;;;;;;;;;;;;;20.63;40.82;102915.72;5005435;28;20064;-42
2022/11/11 13:34:24;;;;;;;;;;;;;;;20.63;41.09;102918.44;5005956;28;20048;-39
2022/11/11 13:36:52;;;;;;;;;;;;;;;20.65;40.81;102921.75;5002253;28;20571;-41
2022/11/11 13:39:24;;;;;;;;;;;;;;;20.60;40.94;102927.16;5005473;28;20024;-39
2022/11/11 13:41:50;;;;;;;;;;;;;;;20.60;41.08;102923.63;5005043;28;20369;-41
2022/11/11 13:44:20;;;;;;;;;;;;;;;20.60;40.79;102929.88;5006899;28;20267;-40
2022/11/11 13:46:46;;;;;;;;;;;;;;;20.57;40.72;102924.97;5004469;28;20310;-40
2022/11/11 13:49:20;;;;;;;;;;;;;;;20.49;40.76;102931.72;5006258;28;19917;-39
2022/11/11 13:51:56;;;;;;;;;;;;;;;20.45;40.68;102930.59;5004600;28;20334;-41
2022/11/11 13:54:24;;;;;;;;;;;;;;;20.41;40.85;102943.09;5002307;28;20299;-41
2022/11/11 13:56:50;;;;;;;;;;;;;;;20.33;40.84;102942.75;5004453;28;20425;-40
2022/11/11 13:59:27;;;;;;;;;;;;;;;20.31;41.25;102944.91;5005662;28;19947;-42
2022/11/11 14:02:10;;;;;;;;;;;;;;;20.29;40.72;102942.44;5005048;28;19921;-40